sensor_id;sensor_type;location;lat;lon;timestamp;P1;durP1;ratioP1;P2;durP2;ratioP2
25319;SDS011;13256;49.012;8.610;2023-09-30T00:11:49;4.10;;;1.55;;
25319;SDS011;13256;49.012;8.610;2023-09-30T00:37:56;2.40;;;1.30;;
25319;SDS011;13256;49.012;8.610;2023-09-30T01:02:49;4.10;;;1.70;;
25319;SDS011;13256;49.012;8.610;2023-09-30T01:22:53;5.32;;;1.85;;
25319;SDS011;13256;49.012;8.610;2023-09-30T01:31:13;2.67;;;1.70;;
25319;SDS011;13256;49.012;8.610;2023-09-30T01:54:33;5.47;;;2.10;;
25319;SDS011;13256;49.012;8.610;2023-09-30T01:57:01;2.70;;;1.50;;
25319;SDS011;13256;49.012;8.610;2023-09-30T01:59:31;4.28;;;1.88;;
25319;SDS011;13256;49.012;8.610;2023-09-30T02:01:58;1.85;;;1.55;;
25319;SDS011;13256;49.012;8.610;2023-09-30T02:04:25;4.30;;;1.90;;
25319;SDS011;13256;49.012;8.610;2023-09-30T02:06:52;3.78;;;1.63;;
25319;SDS011;13256;49.012;8.610;2023-09-30T02:09:26;4.45;;;1.80;;
25319;SDS011;13256;49.012;8.610;2023-09-30T02:12:02;4.95;;;2.10;;
25319;SDS011;13256;49.012;8.610;2023-09-30T02:14:29;6.57;;;1.90;;
25319;SDS011;13256;49.012;8.610;2023-09-30T02:16:57;6.20;;;2.00;;
25319;SDS011;13256;49.012;8.610;2023-09-30T02:19:26;4.10;;;1.48;;
25319;SDS011;13256;49.012;8.610;2023-09-30T02:21:58;3.80;;;1.80;;
25319;SDS011;13256;49.012;8.610;2023-09-30T02:24:30;6.72;;;1.60;;
25319;SDS011;13256;49.012;8.610;2023-09-30T02:26:58;4.93;;;2.53;;
25319;SDS011;13256;49.012;8.610;2023-09-30T02:29:25;4.60;;;1.92;;
25319;SDS011;13256;49.012;8.610;2023-09-30T02:34:41;4.10;;;1.90;;
25319;SDS011;13256;49.012;8.610;2023-09-30T02:37:09;3.58;;;1.90;;
25319;SDS011;13256;49.012;8.610;2023-09-30T02:39:39;4.57;;;2.38;;
25319;SDS011;13256;49.012;8.610;2023-09-30T02:42:06;3.25;;;1.65;;
25319;SDS011;13256;49.012;8.610;2023-09-30T02:44:33;5.90;;;2.45;;
25319;SDS011;13256;49.012;8.610;2023-09-30T02:47:00;5.07;;;2.38;;
25319;SDS011;13256;49.012;8.610;2023-09-30T02:53:01;5.38;;;2.47;;
25319;SDS011;13256;49.012;8.610;2023-09-30T02:55:41;3.90;;;2.05;;
25319;SDS011;13256;49.012;8.610;2023-09-30T02:58:12;5.60;;;2.13;;
25319;SDS011;13256;49.012;8.610;2023-09-30T03:00:47;9.82;;;2.40;;
25319;SDS011;13256;49.012;8.610;2023-09-30T03:03:17;5.35;;;2.17;;
25319;SDS011;13256;49.012;8.610;2023-09-30T03:05:46;6.07;;;2.28;;
25319;SDS011;13256;49.012;8.610;2023-09-30T03:08:13;2.95;;;1.83;;
25319;SDS011;13256;49.012;8.610;2023-09-30T03:10:55;4.15;;;2.22;;
25319;SDS011;13256;49.012;8.610;2023-09-30T03:13:22;5.32;;;2.10;;
25319;SDS011;13256;49.012;8.610;2023-09-30T03:15:51;4.10;;;1.63;;
25319;SDS011;13256;49.012;8.610;2023-09-30T03:21:41;3.67;;;1.85;;
25319;SDS011;13256;49.012;8.610;2023-09-30T03:24:08;3.45;;;2.28;;
25319;SDS011;13256;49.012;8.610;2023-09-30T03:26:36;8.10;;;2.53;;
25319;SDS011;13256;49.012;8.610;2023-09-30T03:29:11;4.03;;;2.28;;
25319;SDS011;13256;49.012;8.610;2023-09-30T03:31:41;4.35;;;2.47;;
25319;SDS011;13256;49.012;8.610;2023-09-30T03:34:13;3.75;;;2.42;;
25319;SDS011;13256;49.012;8.610;2023-09-30T03:36:42;2.65;;;1.80;;
25319;SDS011;13256;49.012;8.610;2023-09-30T03:39:10;4.00;;;2.20;;
25319;SDS011;13256;49.012;8.610;2023-09-30T03:41:41;3.97;;;2.30;;
25319;SDS011;13256;49.012;8.610;2023-09-30T03:44:10;4.40;;;2.00;;
25319;SDS011;13256;49.012;8.610;2023-09-30T03:49:41;10.15;;;2.17;;
25319;SDS011;13256;49.012;8.610;2023-09-30T03:52:23;6.80;;;2.38;;
25319;SDS011;13256;49.012;8.610;2023-09-30T03:54:51;4.53;;;2.38;;
25319;SDS011;13256;49.012;8.610;2023-09-30T03:57:20;3.97;;;2.25;;
25319;SDS011;13256;49.012;8.610;2023-09-30T04:11:05;5.30;;;2.15;;
25319;SDS011;13256;49.012;8.610;2023-09-30T04:13:34;4.35;;;2.20;;
25319;SDS011;13256;49.012;8.610;2023-09-30T04:16:03;4.70;;;2.10;;
25319;SDS011;13256;49.012;8.610;2023-09-30T04:18:33;3.45;;;1.92;;
25319;SDS011;13256;49.012;8.610;2023-09-30T04:21:00;5.35;;;2.20;;
25319;SDS011;13256;49.012;8.610;2023-09-30T04:26:27;5.68;;;2.30;;
25319;SDS011;13256;49.012;8.610;2023-09-30T04:28:54;4.05;;;2.13;;
25319;SDS011;13256;49.012;8.610;2023-09-30T04:31:21;5.75;;;2.30;;
25319;SDS011;13256;49.012;8.610;2023-09-30T04:33:49;5.25;;;2.33;;
25319;SDS011;13256;49.012;8.610;2023-09-30T04:36:19;5.50;;;2.03;;
25319;SDS011;13256;49.012;8.610;2023-09-30T04:38:46;2.53;;;1.70;;
25319;SDS011;13256;49.012;8.610;2023-09-30T04:41:15;2.20;;;1.73;;
25319;SDS011;13256;49.012;8.610;2023-09-30T04:43:43;6.07;;;2.20;;
25319;SDS011;13256;49.012;8.610;2023-09-30T04:46:11;3.78;;;2.00;;
25319;SDS011;13256;49.012;8.610;2023-09-30T04:48:39;6.40;;;2.17;;
25319;SDS011;13256;49.012;8.610;2023-09-30T04:51:06;3.33;;;1.88;;
25319;SDS011;13256;49.012;8.610;2023-09-30T04:53:34;5.53;;;2.10;;
25319;SDS011;13256;49.012;8.610;2023-09-30T04:56:02;3.88;;;2.10;;
25319;SDS011;13256;49.012;8.610;2023-09-30T04:58:36;4.60;;;2.25;;
25319;SDS011;13256;49.012;8.610;2023-09-30T05:01:07;4.63;;;2.17;;
25319;SDS011;13256;49.012;8.610;2023-09-30T05:03:35;5.25;;;2.92;;
25319;SDS011;13256;49.012;8.610;2023-09-30T05:06:02;5.55;;;3.25;;
25319;SDS011;13256;49.012;8.610;2023-09-30T05:08:30;9.25;;;5.07;;
25319;SDS011;13256;49.012;8.610;2023-09-30T05:11:03;7.30;;;3.97;;
25319;SDS011;13256;49.012;8.610;2023-09-30T05:13:31;5.90;;;2.97;;
25319;SDS011;13256;49.012;8.610;2023-09-30T05:16:15;6.35;;;2.58;;
25319;SDS011;13256;49.012;8.610;2023-09-30T05:18:44;4.97;;;2.60;;
25319;SDS011;13256;49.012;8.610;2023-09-30T05:21:15;6.90;;;2.85;;
25319;SDS011;13256;49.012;8.610;2023-09-30T05:26:42;10.18;;;2.92;;
25319;SDS011;13256;49.012;8.610;2023-09-30T05:29:11;6.20;;;2.58;;
25319;SDS011;13256;49.012;8.610;2023-09-30T05:31:38;4.57;;;2.85;;
25319;SDS011;13256;49.012;8.610;2023-09-30T05:34:08;6.18;;;2.28;;
25319;SDS011;13256;49.012;8.610;2023-09-30T05:36:34;6.22;;;2.72;;
25319;SDS011;13256;49.012;8.610;2023-09-30T05:39:03;3.80;;;2.53;;
25319;SDS011;13256;49.012;8.610;2023-09-30T05:44:29;5.32;;;2.63;;
25319;SDS011;13256;49.012;8.610;2023-09-30T05:46:59;5.72;;;2.42;;
25319;SDS011;13256;49.012;8.610;2023-09-30T05:49:29;3.78;;;2.17;;
25319;SDS011;13256;49.012;8.610;2023-09-30T05:51:56;4.78;;;2.40;;
25319;SDS011;13256;49.012;8.610;2023-09-30T05:57:18;5.70;;;2.65;;
25319;SDS011;13256;49.012;8.610;2023-09-30T05:59:51;5.53;;;2.47;;
25319;SDS011;13256;49.012;8.610;2023-09-30T06:02:22;5.80;;;3.10;;
25319;SDS011;13256;49.012;8.610;2023-09-30T06:04:52;4.22;;;2.60;;
25319;SDS011;13256;49.012;8.610;2023-09-30T06:07:22;7.05;;;2.00;;
25319;SDS011;13256;49.012;8.610;2023-09-30T06:09:52;6.97;;;2.20;;
25319;SDS011;13256;49.012;8.610;2023-09-30T06:12:23;3.90;;;2.55;;
25319;SDS011;13256;49.012;8.610;2023-09-30T06:14:53;2.45;;;2.00;;
25319;SDS011;13256;49.012;8.610;2023-09-30T06:17:25;6.53;;;2.67;;
25319;SDS011;13256;49.012;8.610;2023-09-30T06:19:57;4.47;;;2.60;;
25319;SDS011;13256;49.012;8.610;2023-09-30T06:23:00;4.07;;;2.13;;
25319;SDS011;13256;49.012;8.610;2023-09-30T06:25:52;5.55;;;2.65;;
25319;SDS011;13256;49.012;8.610;2023-09-30T06:28:19;5.97;;;2.50;;
25319;SDS011;13256;49.012;8.610;2023-09-30T06:30:52;8.63;;;2.88;;
25319;SDS011;13256;49.012;8.610;2023-09-30T06:33:23;5.45;;;2.78;;
25319;SDS011;13256;49.012;8.610;2023-09-30T06:35:54;5.35;;;2.78;;
25319;SDS011;13256;49.012;8.610;2023-09-30T06:38:22;7.90;;;2.53;;
25319;SDS011;13256;49.012;8.610;2023-09-30T06:41:22;7.80;;;2.97;;
25319;SDS011;13256;49.012;8.610;2023-09-30T06:43:54;6.20;;;2.75;;
25319;SDS011;13256;49.012;8.610;2023-09-30T06:46:20;5.15;;;2.58;;
25319;SDS011;13256;49.012;8.610;2023-09-30T06:48:47;7.13;;;2.70;;
25319;SDS011;13256;49.012;8.610;2023-09-30T06:51:18;6.97;;;2.63;;
25319;SDS011;13256;49.012;8.610;2023-09-30T06:53:45;5.10;;;2.72;;
25319;SDS011;13256;49.012;8.610;2023-09-30T06:56:12;7.72;;;2.92;;
25319;SDS011;13256;49.012;8.610;2023-09-30T06:58:42;6.90;;;3.22;;
25319;SDS011;13256;49.012;8.610;2023-09-30T07:01:14;7.07;;;3.17;;
25319;SDS011;13256;49.012;8.610;2023-09-30T07:03:45;4.55;;;2.83;;
25319;SDS011;13256;49.012;8.610;2023-09-30T07:06:25;4.25;;;2.63;;
25319;SDS011;13256;49.012;8.610;2023-09-30T07:09:13;5.80;;;3.25;;
25319;SDS011;13256;49.012;8.610;2023-09-30T07:11:40;6.32;;;3.17;;
25319;SDS011;13256;49.012;8.610;2023-09-30T07:14:10;6.53;;;2.75;;
25319;SDS011;13256;49.012;8.610;2023-09-30T07:16:38;5.78;;;2.90;;
25319;SDS011;13256;49.012;8.610;2023-09-30T07:19:07;11.43;;;4.18;;
25319;SDS011;13256;49.012;8.610;2023-09-30T07:21:34;10.10;;;4.00;;
25319;SDS011;13256;49.012;8.610;2023-09-30T07:24:02;7.65;;;4.07;;
25319;SDS011;13256;49.012;8.610;2023-09-30T07:26:29;8.95;;;3.95;;
25319;SDS011;13256;49.012;8.610;2023-09-30T07:29:00;15.18;;;4.72;;
25319;SDS011;13256;49.012;8.610;2023-09-30T07:31:33;12.30;;;5.35;;
25319;SDS011;13256;49.012;8.610;2023-09-30T07:34:04;9.23;;;4.82;;
25319;SDS011;13256;49.012;8.610;2023-09-30T07:36:39;14.40;;;6.00;;
25319;SDS011;13256;49.012;8.610;2023-09-30T07:39:06;10.98;;;5.82;;
25319;SDS011;13256;49.012;8.610;2023-09-30T07:41:36;10.57;;;5.13;;
25319;SDS011;13256;49.012;8.610;2023-09-30T07:44:06;11.75;;;5.50;;
25319;SDS011;13256;49.012;8.610;2023-09-30T07:46:37;14.30;;;6.40;;
25319;SDS011;13256;49.012;8.610;2023-09-30T07:49:10;10.85;;;5.85;;
25319;SDS011;13256;49.012;8.610;2023-09-30T07:51:37;13.02;;;5.60;;
25319;SDS011;13256;49.012;8.610;2023-09-30T08:09:16;12.60;;;5.80;;
25319;SDS011;13256;49.012;8.610;2023-09-30T08:11:46;9.27;;;4.90;;
25319;SDS011;13256;49.012;8.610;2023-09-30T08:14:13;10.68;;;5.60;;
25319;SDS011;13256;49.012;8.610;2023-09-30T08:16:44;15.05;;;6.07;;
25319;SDS011;13256;49.012;8.610;2023-09-30T08:19:14;14.88;;;5.82;;
25319;SDS011;13256;49.012;8.610;2023-09-30T08:21:42;12.27;;;5.90;;
25319;SDS011;13256;49.012;8.610;2023-09-30T08:24:39;10.85;;;5.40;;
25319;SDS011;13256;49.012;8.610;2023-09-30T08:27:09;14.23;;;6.80;;
25319;SDS011;13256;49.012;8.610;2023-09-30T08:29:36;14.38;;;5.90;;
25319;SDS011;13256;49.012;8.610;2023-09-30T08:32:07;16.13;;;6.57;;
25319;SDS011;13256;49.012;8.610;2023-09-30T08:34:34;11.30;;;5.47;;
25319;SDS011;13256;49.012;8.610;2023-09-30T08:37:02;12.43;;;5.40;;
25319;SDS011;13256;49.012;8.610;2023-09-30T08:39:28;9.63;;;4.95;;
25319;SDS011;13256;49.012;8.610;2023-09-30T08:41:59;7.32;;;4.47;;
25319;SDS011;13256;49.012;8.610;2023-09-30T08:44:30;9.05;;;4.22;;
25319;SDS011;13256;49.012;8.610;2023-09-30T08:47:01;16.42;;;5.28;;
25319;SDS011;13256;49.012;8.610;2023-09-30T08:49:33;11.10;;;4.90;;
25319;SDS011;13256;49.012;8.610;2023-09-30T08:52:10;8.95;;;3.90;;
25319;SDS011;13256;49.012;8.610;2023-09-30T08:54:43;9.80;;;4.57;;
25319;SDS011;13256;49.012;8.610;2023-09-30T08:57:10;10.23;;;4.35;;
25319;SDS011;13256;49.012;8.610;2023-09-30T08:59:38;14.70;;;4.72;;
25319;SDS011;13256;49.012;8.610;2023-09-30T09:02:18;10.75;;;3.88;;
25319;SDS011;13256;49.012;8.610;2023-09-30T09:04:47;91.93;;;8.95;;
25319;SDS011;13256;49.012;8.610;2023-09-30T09:07:21;10.23;;;4.13;;
25319;SDS011;13256;49.012;8.610;2023-09-30T09:10:30;9.00;;;4.53;;
25319;SDS011;13256;49.012;8.610;2023-09-30T09:12:42;14.57;;;4.47;;
25319;SDS011;13256;49.012;8.610;2023-09-30T09:15:21;13.18;;;5.18;;
25319;SDS011;13256;49.012;8.610;2023-09-30T09:17:51;16.15;;;4.70;;
25319;SDS011;13256;49.012;8.610;2023-09-30T09:20:19;9.18;;;3.75;;
25319;SDS011;13256;49.012;8.610;2023-09-30T09:22:51;8.95;;;3.75;;
25319;SDS011;13256;49.012;8.610;2023-09-30T09:25:23;10.55;;;4.15;;
25319;SDS011;13256;49.012;8.610;2023-09-30T09:27:52;8.52;;;3.60;;
25319;SDS011;13256;49.012;8.610;2023-09-30T09:30:22;9.50;;;3.88;;
25319;SDS011;13256;49.012;8.610;2023-09-30T09:35:33;9.95;;;3.38;;
25319;SDS011;13256;49.012;8.610;2023-09-30T09:38:03;5.53;;;2.88;;
25319;SDS011;13256;49.012;8.610;2023-09-30T09:40:35;6.03;;;3.50;;
25319;SDS011;13256;49.012;8.610;2023-09-30T09:46:13;8.32;;;3.08;;
25319;SDS011;13256;49.012;8.610;2023-09-30T09:48:41;9.50;;;3.28;;
25319;SDS011;13256;49.012;8.610;2023-09-30T09:51:12;6.60;;;3.40;;
25319;SDS011;13256;49.012;8.610;2023-09-30T09:53:40;8.98;;;3.30;;
25319;SDS011;13256;49.012;8.610;2023-09-30T09:56:09;6.93;;;2.83;;
25319;SDS011;13256;49.012;8.610;2023-09-30T09:58:39;7.30;;;3.03;;
25319;SDS011;13256;49.012;8.610;2023-09-30T10:01:12;8.13;;;3.38;;
25319;SDS011;13256;49.012;8.610;2023-09-30T10:06:58;7.25;;;3.15;;
25319;SDS011;13256;49.012;8.610;2023-09-30T10:33:10;7.13;;;3.08;;
25319;SDS011;13256;49.012;8.610;2023-09-30T11:10:17;8.07;;;3.40;;
25319;SDS011;13256;49.012;8.610;2023-09-30T11:31:12;7.28;;;3.22;;
25319;SDS011;13256;49.012;8.610;2023-09-30T11:42:37;9.32;;;3.35;;
25319;SDS011;13256;49.012;8.610;2023-09-30T11:45:20;11.13;;;3.50;;
25319;SDS011;13256;49.012;8.610;2023-09-30T11:47:51;8.35;;;3.42;;
25319;SDS011;13256;49.012;8.610;2023-09-30T11:57:17;9.07;;;3.40;;
25319;SDS011;13256;49.012;8.610;2023-09-30T12:02:39;9.13;;;3.28;;
25319;SDS011;13256;49.012;8.610;2023-09-30T12:05:10;7.30;;;3.17;;
25319;SDS011;13256;49.012;8.610;2023-09-30T12:23:05;8.18;;;3.10;;
25319;SDS011;13256;49.012;8.610;2023-09-30T12:29:41;9.32;;;3.03;;
25319;SDS011;13256;49.012;8.610;2023-09-30T12:32:10;11.23;;;3.60;;
25319;SDS011;13256;49.012;8.610;2023-09-30T14:14:33;11.45;;;3.55;;
25319;SDS011;13256;49.012;8.610;2023-09-30T14:17:04;8.13;;;3.80;;
25319;SDS011;13256;49.012;8.610;2023-09-30T14:19:38;12.10;;;3.80;;
25319;SDS011;13256;49.012;8.610;2023-09-30T14:31:26;11.00;;;3.72;;
25319;SDS011;13256;49.012;8.610;2023-09-30T14:37:05;10.85;;;3.78;;
25319;SDS011;13256;49.012;8.610;2023-09-30T15:04:02;20.45;;;4.85;;
25319;SDS011;13256;49.012;8.610;2023-09-30T15:06:31;9.80;;;3.90;;
25319;SDS011;13256;49.012;8.610;2023-09-30T15:18:58;9.85;;;4.07;;
25319;SDS011;13256;49.012;8.610;2023-09-30T15:21:28;11.45;;;4.45;;
25319;SDS011;13256;49.012;8.610;2023-09-30T15:23:55;10.60;;;3.75;;
25319;SDS011;13256;49.012;8.610;2023-09-30T15:26:22;11.40;;;4.07;;
25319;SDS011;13256;49.012;8.610;2023-09-30T15:28:53;12.35;;;4.05;;
25319;SDS011;13256;49.012;8.610;2023-09-30T15:31:20;10.00;;;3.63;;
25319;SDS011;13256;49.012;8.610;2023-09-30T15:36:43;10.93;;;4.05;;
25319;SDS011;13256;49.012;8.610;2023-09-30T15:39:12;12.43;;;4.07;;
25319;SDS011;13256;49.012;8.610;2023-09-30T16:05:06;11.25;;;3.85;;
25319;SDS011;13256;49.012;8.610;2023-09-30T16:07:38;8.95;;;3.63;;
25319;SDS011;13256;49.012;8.610;2023-09-30T16:10:10;9.80;;;4.07;;
25319;SDS011;13256;49.012;8.610;2023-09-30T16:25:40;12.25;;;4.70;;
25319;SDS011;13256;49.012;8.610;2023-09-30T16:29:03;9.32;;;3.70;;
25319;SDS011;13256;49.012;8.610;2023-09-30T16:31:33;13.77;;;4.20;;
25319;SDS011;13256;49.012;8.610;2023-09-30T16:35:18;9.57;;;3.90;;
25319;SDS011;13256;49.012;8.610;2023-09-30T16:47:43;10.77;;;4.15;;
25319;SDS011;13256;49.012;8.610;2023-09-30T17:01:10;10.00;;;3.93;;
25319;SDS011;13256;49.012;8.610;2023-09-30T17:33:45;10.85;;;4.10;;
25319;SDS011;13256;49.012;8.610;2023-09-30T17:57:32;15.10;;;6.10;;
25319;SDS011;13256;49.012;8.610;2023-09-30T18:00:06;14.68;;;4.97;;
25319;SDS011;13256;49.012;8.610;2023-09-30T18:27:42;10.07;;;4.32;;
25319;SDS011;13256;49.012;8.610;2023-09-30T18:30:15;11.38;;;4.35;;
25319;SDS011;13256;49.012;8.610;2023-09-30T18:32:46;11.63;;;4.90;;
25319;SDS011;13256;49.012;8.610;2023-09-30T18:42:14;11.13;;;4.18;;
25319;SDS011;13256;49.012;8.610;2023-09-30T18:44:49;10.27;;;4.07;;
25319;SDS011;13256;49.012;8.610;2023-09-30T18:47:19;12.32;;;4.35;;
25319;SDS011;13256;49.012;8.610;2023-09-30T18:52:39;13.95;;;4.22;;
25319;SDS011;13256;49.012;8.610;2023-09-30T19:10:42;11.73;;;3.85;;
25319;SDS011;13256;49.012;8.610;2023-09-30T19:22:13;13.98;;;4.53;;
25319;SDS011;13256;49.012;8.610;2023-09-30T19:38:44;11.85;;;4.85;;
25319;SDS011;13256;49.012;8.610;2023-09-30T19:41:18;13.30;;;4.53;;
25319;SDS011;13256;49.012;8.610;2023-09-30T19:43:46;8.40;;;4.00;;
25319;SDS011;13256;49.012;8.610;2023-09-30T19:46:14;9.43;;;4.75;;
25319;SDS011;13256;49.012;8.610;2023-09-30T19:54:57;10.80;;;4.63;;
25319;SDS011;13256;49.012;8.610;2023-09-30T19:57:27;13.93;;;4.95;;
25319;SDS011;13256;49.012;8.610;2023-09-30T19:59:59;12.25;;;5.38;;
25319;SDS011;13256;49.012;8.610;2023-09-30T20:05:18;12.85;;;5.30;;
25319;SDS011;13256;49.012;8.610;2023-09-30T20:07:52;14.30;;;4.95;;
25319;SDS011;13256;49.012;8.610;2023-09-30T20:13:16;12.65;;;5.05;;
25319;SDS011;13256;49.012;8.610;2023-09-30T20:15:47;13.18;;;4.65;;
25319;SDS011;13256;49.012;8.610;2023-09-30T20:18:15;10.32;;;5.13;;
25319;SDS011;13256;49.012;8.610;2023-09-30T20:23:41;10.40;;;4.60;;
25319;SDS011;13256;49.012;8.610;2023-09-30T20:46:38;11.02;;;4.93;;
25319;SDS011;13256;49.012;8.610;2023-09-30T20:58:13;12.73;;;4.03;;
25319;SDS011;13256;49.012;8.610;2023-09-30T21:06:52;9.95;;;4.40;;
25319;SDS011;13256;49.012;8.610;2023-09-30T21:12:34;12.15;;;4.93;;
25319;SDS011;13256;49.012;8.610;2023-09-30T21:15:03;9.65;;;4.55;;
25319;SDS011;13256;49.012;8.610;2023-09-30T21:20:37;15.43;;;4.72;;
25319;SDS011;13256;49.012;8.610;2023-09-30T21:23:04;10.85;;;4.63;;
25319;SDS011;13256;49.012;8.610;2023-09-30T21:35:32;10.75;;;4.80;;
25319;SDS011;13256;49.012;8.610;2023-09-30T21:38:01;12.63;;;4.38;;
25319;SDS011;13256;49.012;8.610;2023-09-30T21:47:16;11.05;;;4.78;;
25319;SDS011;13256;49.012;8.610;2023-09-30T21:56:48;16.55;;;5.10;;
25319;SDS011;13256;49.012;8.610;2023-09-30T21:59:19;11.13;;;5.68;;
25319;SDS011;13256;49.012;8.610;2023-09-30T22:01:52;10.73;;;5.13;;
25319;SDS011;13256;49.012;8.610;2023-09-30T22:04:49;11.60;;;4.90;;
25319;SDS011;13256;49.012;8.610;2023-09-30T22:07:17;14.15;;;4.68;;
25319;SDS011;13256;49.012;8.610;2023-09-30T22:09:48;12.75;;;5.20;;
25319;SDS011;13256;49.012;8.610;2023-09-30T22:15:26;13.90;;;4.57;;
25319;SDS011;13256;49.012;8.610;2023-09-30T22:21:02;14.85;;;4.95;;
25319;SDS011;13256;49.012;8.610;2023-09-30T22:23:37;9.85;;;4.57;;
25319;SDS011;13256;49.012;8.610;2023-09-30T22:26:04;10.63;;;4.57;;
25319;SDS011;13256;49.012;8.610;2023-09-30T22:28:40;9.55;;;4.60;;
25319;SDS011;13256;49.012;8.610;2023-09-30T22:31:23;13.00;;;4.82;;
25319;SDS011;13256;49.012;8.610;2023-09-30T22:33:56;12.10;;;4.95;;
25319;SDS011;13256;49.012;8.610;2023-09-30T22:36:25;10.73;;;4.63;;
25319;SDS011;13256;49.012;8.610;2023-09-30T22:42:09;11.32;;;5.00;;
25319;SDS011;13256;49.012;8.610;2023-09-30T22:44:42;10.02;;;4.53;;
25319;SDS011;13256;49.012;8.610;2023-09-30T23:01:03;11.07;;;4.75;;
25319;SDS011;13256;49.012;8.610;2023-09-30T23:04:08;12.07;;;5.13;;
25319;SDS011;13256;49.012;8.610;2023-09-30T23:06:42;12.93;;;5.22;;
25319;SDS011;13256;49.012;8.610;2023-09-30T23:12:13;13.70;;;5.15;;
25319;SDS011;13256;49.012;8.610;2023-09-30T23:17:51;11.80;;;4.72;;
25319;SDS011;13256;49.012;8.610;2023-09-30T23:23:43;13.38;;;5.38;;
25319;SDS011;13256;49.012;8.610;2023-09-30T23:26:14;11.77;;;5.25;;
25319;SDS011;13256;49.012;8.610;2023-09-30T23:28:45;9.85;;;4.43;;
25319;SDS011;13256;49.012;8.610;2023-09-30T23:31:14;15.02;;;5.20;;
25319;SDS011;13256;49.012;8.610;2023-09-30T23:37:25;12.13;;;5.50;;
25319;SDS011;13256;49.012;8.610;2023-09-30T23:39:58;13.88;;;5.20;;
25319;SDS011;13256;49.012;8.610;2023-09-30T23:54:40;10.60;;;4.97;;
25319;SDS011;13256;49.012;8.610;2023-09-30T23:57:44;10.98;;;4.88;;
